Time;durP1;ratioP1;P1;durP2;ratioP2;P2;SDS_P1;SDS_P2;PMS_P1;PMS_P2;Temp;Humidity;BMP_temperature;BMP_pressure;BME280_temperature;BME280_humidity;BME280_pressure;Samples;Min_cycle;Max_cycle;Signal;HPM_P1;HPM_P2
2023/01/11 00:01:52;;;;;;;1.52;0.38;;;5.80;99.90;;;;;;4921877;29;19915;-83
2023/01/11 00:04:18;;;;;;;1.70;0.77;;;6.10;99.90;;;;;;4923939;29;20021;-83
2023/01/11 00:06:45;;;;;;;1.88;0.45;;;6.30;99.90;;;;;;4925554;29;20576;-83
2023/01/11 00:09:11;;;;;;;1.60;0.47;;;6.30;99.90;;;;;;4926424;29;20020;-83
2023/01/11 00:11:37;;;;;;;1.80;0.68;;;6.60;99.90;;;;;;4926372;29;20033;-82
2023/01/11 00:14:03;;;;;;;;;;;6.40;99.90;;;;;;4926875;29;20034;-82
2023/01/11 00:16:29;;;;;;;1.60;0.60;;;6.30;99.90;;;;;;4926243;29;19899;-83
2023/01/11 00:18:55;;;;;;;;;;;6.20;99.90;;;;;;4926367;29;20017;-83
2023/01/11 00:21:21;;;;;;;2.08;0.65;;;5.90;99.90;;;;;;4909682;29;19903;-83
2023/01/11 00:23:49;;;;;;;1.90;0.52;;;5.90;99.90;;;;;;4909847;29;20037;-82
2023/01/11 00:26:15;;;;;;;4.97;0.70;;;5.80;99.90;;;;;;4925633;29;20020;-83
2023/01/11 00:28:41;;;;;;;1.95;0.65;;;5.70;99.90;;;;;;4925987;29;20017;-83
2023/01/11 00:31:07;;;;;;;1.67;0.63;;;5.80;99.90;;;;;;4926217;29;20016;-83
2023/01/11 00:33:34;;;;;;;2.28;0.95;;;5.70;99.90;;;;;;4925909;29;20017;-83
2023/01/11 00:36:00;;;;;;;0.90;0.45;;;5.80;99.90;;;;;;4909823;29;20023;-83
2023/01/11 00:38:50;;;;;;;1.70;0.70;;;5.80;99.90;;;;;;4925871;29;20033;-82
2023/01/11 00:49:30;;;;;;;1.25;0.50;;;5.90;99.90;;;;;;4925417;29;20024;-84
2023/01/11 00:51:56;;;;;;;;;;;6.00;99.90;;;;;;4925938;29;20021;-84
2023/01/11 00:54:22;;;;;;;1.45;0.57;;;6.10;99.90;;;;;;4925675;29;19895;-84
2023/01/11 00:56:51;;;;;;;;;;;6.00;99.90;;;;;;4925462;29;20047;-83
2023/01/11 00:59:17;;;;;;;1.77;0.30;;;5.90;99.90;;;;;;4925538;29;19918;-83
2023/01/11 01:01:42;;;;;;;;;;;6.10;99.90;;;;;;4925717;29;20020;-83
2023/01/11 01:04:08;;;;;;;3.15;0.70;;;6.40;99.90;;;;;;4925219;29;19895;-83
2023/01/11 01:06:34;;;;;;;;;;;6.60;99.90;;;;;;4925367;29;20032;-81
2023/01/11 01:09:00;;;;;;;2.33;0.60;;;6.60;99.90;;;;;;4925479;29;19980;-84
2023/01/11 01:11:26;;;;;;;;;;;6.60;99.90;;;;;;4924752;29;20028;-83
2023/01/11 01:47:45;;;;;;;1.63;0.57;;;7.00;99.90;;;;;;4960815;28;20032;-82
2023/01/11 01:50:31;;;;;;;1.20;0.50;;;6.90;99.90;;;;;;4962700;28;20042;-84
2023/01/11 01:53:08;;;;;;;2.80;0.80;;;6.80;99.90;;;;;;4946073;29;20036;-83
2023/01/11 01:55:36;;;;;;;;;;;6.60;99.90;;;;;;4962850;28;20026;-83
2023/01/11 01:58:08;;;;;;;2.40;0.60;;;6.40;99.90;;;;;;4962419;28;19902;-82
2023/01/11 02:00:34;;;;;;;1.10;0.50;;;6.30;99.90;;;;;;4962749;28;20012;-83
2023/01/11 02:03:00;;;;;;;;;;;6.10;99.90;;;;;;4963126;28;20023;-81
2023/01/11 02:05:27;;;;;;;1.95;0.70;;;6.10;99.90;;;;;;4962607;28;19895;-83
2023/01/11 02:07:55;;;;;;;2.47;0.68;;;6.00;99.90;;;;;;4945835;29;20040;-83
2023/01/11 02:10:22;;;;;;;1.38;0.52;;;6.00;99.90;;;;;;4962363;28;20015;-82
2023/01/11 02:12:54;;;;;;;1.40;0.50;;;6.00;99.90;;;;;;4945905;29;20050;-83
2023/01/11 02:15:22;;;;;;;1.17;0.50;;;6.10;99.90;;;;;;4945731;29;20039;-83
2023/01/11 02:17:47;;;;;;;1.55;0.52;;;6.20;99.90;;;;;;4961497;29;20036;-84
2023/01/11 02:20:28;;;;;;;;;;;6.50;99.90;;;;;;4962112;29;20030;-83
2023/01/11 02:23:06;;;;;;;3.75;1.40;;;6.30;99.90;;;;;;4962362;28;19902;-82
2023/01/11 02:26:03;;;;;;;1.02;0.30;;;6.50;99.90;;;;;;4944897;29;20122;-82
2023/01/11 02:28:55;;;;;;;1.73;0.65;;;6.70;99.90;;;;;;4960739;29;20016;-83
2023/01/11 02:31:42;;;;;;;2.53;0.90;;;6.70;99.90;;;;;;4925699;28;20044;-82
2023/01/11 02:34:08;;;;;;;1.55;0.60;;;6.70;99.90;;;;;;4945079;29;20026;-82
2023/01/11 02:36:49;;;;;;;1.40;0.60;;;6.60;99.90;;;;;;4945320;28;20039;-81
2023/01/11 02:39:21;;;;;;;1.70;0.60;;;6.50;99.90;;;;;;4961204;29;20035;-82
2023/01/11 02:45:12;;;;;;;2.83;0.70;;;6.30;99.90;;;;;;4961693;28;20112;-82
2023/01/11 02:47:45;;;;;;;2.50;0.70;;;6.00;99.90;;;;;;4944997;29;20043;-82
2023/01/11 02:50:37;;;;;;;0.88;0.50;;;6.00;99.90;;;;;;4944831;29;20096;-84
2023/01/11 02:53:36;;;;;;;1.45;0.63;;;6.30;99.90;;;;;;4961191;28;20007;-83
2023/01/11 02:56:08;;;;;;;1.92;0.50;;;6.30;99.90;;;;;;4960583;29;20018;-83
2023/01/11 02:58:38;;;;;;;1.58;0.70;;;6.50;99.90;;;;;;4944494;29;20035;-83
2023/01/11 03:01:05;;;;;;;1.25;0.40;;;6.60;99.90;;;;;;4944674;29;20018;-83
2023/01/11 03:03:32;;;;;;;1.58;0.50;;;6.40;99.90;;;;;;4944476;29;20024;-84
2023/01/11 03:06:10;;;;;;;3.08;0.70;;;6.50;99.90;;;;;;4959637;28;20035;-83
2023/01/11 03:08:43;;;;;;;1.63;0.50;;;6.70;99.90;;;;;;4959545;29;20007;-82
2023/01/11 03:14:35;;;;;;;1.63;0.60;;;6.80;99.90;;;;;;4889712;29;20069;-83
2023/01/11 03:17:48;;;;;;;2.17;0.80;;;6.70;99.90;;;;;;4944677;29;20038;-83
2023/01/11 03:20:16;;;;;;;0.80;0.40;;;6.80;99.90;;;;;;4920202;29;20035;-82
2023/01/11 03:22:46;;;;;;;2.17;0.47;;;6.60;99.90;;;;;;4944837;28;20020;-81
2023/01/11 03:25:23;;;;;;;1.98;0.95;;;6.20;99.90;;;;;;4944700;29;20028;-83
2023/01/11 03:28:05;;;;;;;2.95;0.80;;;6.30;99.90;;;;;;4960292;29;20040;-83
2023/01/11 03:30:46;;;;;;;2.60;0.75;;;6.30;99.90;;;;;;4961357;28;20035;-83
2023/01/11 03:33:31;;;;;;;2.03;0.70;;;6.20;99.90;;;;;;4960477;29;20079;-83
2023/01/11 03:36:00;;;;;;;2.33;0.95;;;6.00;99.90;;;;;;4944520;29;20016;-83
2023/01/11 03:38:35;;;;;;;3.03;0.85;;;5.90;99.90;;;;;;4962672;28;20031;-83
2023/01/11 03:41:05;;;;;;;1.92;0.75;;;5.80;99.90;;;;;;4964392;29;20016;-82
2023/01/11 03:43:35;;;;;;;2.25;0.82;;;5.70;99.90;;;;;;4948668;29;20024;-83
2023/01/11 03:46:07;;;;;;;4.07;1.20;;;5.60;99.90;;;;;;4964801;28;20083;-84
2023/01/11 03:48:48;;;;;;;15.40;4.45;;;5.60;99.90;;;;;;4948404;28;20083;-83
2023/01/11 03:51:19;;;;;;;3.30;1.27;;;5.50;99.90;;;;;;4948124;29;20032;-84
2023/01/11 03:53:49;;;;;;;2.20;0.60;;;5.50;99.90;;;;;;4964006;28;20031;-83
2023/01/11 03:56:19;;;;;;;3.55;1.23;;;5.50;99.90;;;;;;4948494;29;20023;-83
2023/01/11 03:58:44;;;;;;;3.75;1.27;;;5.50;99.90;;;;;;4964728;28;20034;-83
2023/01/11 04:01:11;;;;;;;;;;;5.40;99.90;;;;;;4948698;28;20023;-82
2023/01/11 04:03:37;;;;;;;17.67;4.73;;;5.50;99.90;;;;;;4948134;29;19918;-82
2023/01/11 04:06:03;;;;;;;;;;;5.50;99.90;;;;;;4963226;29;20279;-81
2023/01/11 04:08:29;;;;;;;2.85;0.77;;;6.00;99.90;;;;;;4946125;29;19935;-83
2023/01/11 04:10:55;;;;;;;2.92;1.10;;;6.00;99.90;;;;;;4964114;28;20011;-83
2023/01/11 04:13:21;;;;;;;;;;;5.90;99.90;;;;;;4948129;29;20048;-84
2023/01/11 04:15:47;;;;;;;1.83;0.68;;;6.00;99.90;;;;;;4963865;28;19894;-83
2023/01/11 04:18:12;;;;;;;;;;;6.10;99.90;;;;;;4965151;28;20072;-81
2023/01/11 04:20:40;;;;;;;3.00;1.10;;;6.20;99.90;;;;;;4948425;28;19974;-80
2023/01/11 04:23:08;;;;;;;1.98;0.98;;;6.10;99.90;;;;;;4948511;28;20035;-81
2023/01/11 04:25:34;;;;;;;2.28;1.23;;;6.20;99.90;;;;;;4964638;28;20008;-83
2023/01/11 04:28:00;;;;;;;;;;;6.20;99.90;;;;;;4965209;28;20027;-81
2023/01/11 04:30:26;;;;;;;2.10;0.80;;;6.20;99.90;;;;;;4964239;28;19902;-82
2023/01/11 04:32:52;;;;;;;3.45;0.77;;;6.30;99.90;;;;;;4948212;29;20012;-84
2023/01/11 04:35:18;;;;;;;;;;;6.40;99.90;;;;;;4964961;28;20016;-83
2023/01/11 04:37:44;;;;;;;3.15;0.82;;;6.40;99.90;;;;;;4964636;28;19901;-81
2023/01/11 04:40:09;;;;;;;;;;;6.20;99.90;;;;;;4948528;29;20016;-80
2023/01/11 04:42:35;;;;;;;3.35;1.02;;;6.20;99.90;;;;;;4948052;28;19902;-82
2023/01/11 04:45:04;;;;;;;;;;;6.00;99.90;;;;;;4964837;28;20004;-82
2023/01/11 04:47:30;;;;;;;2.17;0.88;;;5.90;99.90;;;;;;4964228;28;19930;-80
2023/01/11 04:49:56;;;;;;;3.25;1.02;;;5.80;99.90;;;;;;4964001;28;20043;-82
2023/01/11 04:52:22;;;;;;;;;;;5.90;99.90;;;;;;4964710;28;20016;-81
2023/01/11 04:54:48;;;;;;;2.80;0.70;;;5.80;99.90;;;;;;4947805;28;19915;-81
2023/01/11 04:57:16;;;;;;;1.92;0.70;;;5.90;99.90;;;;;;4964200;28;20034;-81
2023/01/11 04:59:42;;;;;;;1.98;0.88;;;5.90;99.90;;;;;;4964215;28;20032;-82
2023/01/11 05:02:07;;;;;;;;;;;6.00;99.90;;;;;;4964575;28;20039;-81
2023/01/11 05:04:36;;;;;;;1.73;0.80;;;6.10;99.90;;;;;;4964084;28;19915;-82
2023/01/11 05:07:02;;;;;;;2.78;0.70;;;5.90;99.90;;;;;;4963638;28;20071;-81
2023/01/11 05:09:28;;;;;;;;;;;6.00;99.90;;;;;;4948016;29;20012;-80
2023/01/11 05:11:53;;;;;;;2.70;1.10;;;5.90;99.90;;;;;;4964021;28;19895;-81
2023/01/11 05:14:19;;;;;;;;;;;5.70;99.90;;;;;;4947622;28;20023;-83
2023/01/11 05:29:43;;;;;;;4.25;1.92;;;5.90;99.90;;;;;;5992282;23;20014;-80
2023/01/11 05:32:11;;;;;;;3.05;1.38;;;6.00;99.90;;;;;;4964811;28;20055;-83
2023/01/11 05:34:42;;;;;;;3.05;1.02;;;6.20;99.90;;;;;;4964445;28;20035;-81
2023/01/11 05:37:08;;;;;;;5.20;1.73;;;6.20;99.90;;;;;;4981432;28;20015;-81
2023/01/11 05:39:34;;;;;;;;;;;6.20;99.90;;;;;;4982264;28;20031;-83
2023/01/11 05:42:00;;;;;;;3.10;1.23;;;6.30;99.90;;;;;;4965510;28;19899;-83
2023/01/11 05:47:09;;;;;;;2.60;1.00;;;6.60;99.90;;;;;;4982256;28;19925;-83
2023/01/11 05:49:35;;;;;;;;;;;6.60;99.90;;;;;;4982165;28;20031;-84
2023/01/11 05:52:01;;;;;;;2.05;0.75;;;6.60;99.90;;;;;;4981545;28;19918;-83
2023/01/11 05:54:27;;;;;;;;;;;6.60;99.90;;;;;;4964829;29;20059;-85
2023/01/11 05:56:56;;;;;;;4.15;1.38;;;6.70;99.90;;;;;;4981376;28;19902;-84
2023/01/11 05:59:22;;;;;;;2.58;0.95;;;6.40;99.90;;;;;;4964785;29;20040;-84
2023/01/11 06:01:48;;;;;;;;;;;6.70;99.90;;;;;;4964510;28;20020;-82
2023/01/11 06:04:14;;;;;;;3.08;1.33;;;6.70;99.90;;;;;;4981655;28;19975;-83
2023/01/11 06:06:43;;;;;;;;;;;6.70;99.90;;;;;;4981933;28;20023;-85
2023/01/11 06:09:09;;;;;;;2.35;0.90;;;6.60;99.90;;;;;;4965225;28;19918;-84
2023/01/11 06:11:34;;;;;;;;;;;6.70;99.90;;;;;;4981740;28;20035;-83
2023/01/11 06:14:00;;;;;;;5.15;0.85;;;6.70;99.90;;;;;;4963362;29;19913;-84
2023/01/11 06:16:26;;;;;;;;;;;6.90;99.90;;;;;;4980773;28;20024;-85
2023/01/11 06:18:53;;;;;;;4.13;1.60;;;6.90;99.90;;;;;;4980888;28;19894;-84
2023/01/11 06:21:20;;;;;;;4.15;1.60;;;6.80;99.90;;;;;;4980342;29;20011;-84
2023/01/11 06:23:49;;;;;;;4.03;1.38;;;6.50;99.90;;;;;;4964375;29;20043;-84
2023/01/11 06:26:17;;;;;;;3.33;1.80;;;6.80;99.90;;;;;;4964695;28;20023;-82
2023/01/11 06:28:43;;;;;;;3.03;1.27;;;6.80;99.90;;;;;;4964744;28;20043;-83
2023/01/11 06:31:10;;;;;;;5.93;1.67;;;6.80;99.90;;;;;;4980428;28;20055;-83
2023/01/11 06:33:36;;;;;;;4.47;1.98;;;6.70;99.90;;;;;;4981026;28;20066;-84
2023/01/11 06:36:05;;;;;;;4.22;2.08;;;6.60;99.90;;;;;;4963874;29;20023;-81
2023/01/11 06:38:31;;;;;;;1.63;0.60;;;6.60;99.90;;;;;;4980238;29;20039;-81
2023/01/11 06:40:58;;;;;;;;;;;6.60;99.90;;;;;;4980050;29;20023;-82
2023/01/11 06:43:25;;;;;;;2.47;0.82;;;6.60;99.90;;;;;;4963386;28;19922;-82
2023/01/11 06:45:51;;;;;;;2.00;0.98;;;6.70;99.90;;;;;;4962882;28;20037;-84
2023/01/11 06:48:17;;;;;;;;;;;6.80;99.90;;;;;;4964528;28;20035;-82
2023/01/11 06:50:49;;;;;;;1.55;0.68;;;6.80;99.90;;;;;;4964390;28;19906;-84
2023/01/11 06:53:15;;;;;;;2.28;0.90;;;7.00;99.90;;;;;;4980969;28;20022;-84
2023/01/11 06:55:40;;;;;;;;;;;7.00;99.90;;;;;;4980630;28;20020;-82
2023/01/11 06:58:06;;;;;;;7.78;2.90;;;7.00;99.90;;;;;;4964115;28;19903;-84
2023/01/11 07:00:32;;;;;;;;;;;7.00;99.90;;;;;;4981047;28;20015;-84
2023/01/11 07:03:02;;;;;;;17.35;7.47;;;6.90;99.90;;;;;;4980668;28;19942;-84
2023/01/11 07:05:29;;;;;;;7.28;2.60;;;6.90;99.90;;;;;;4980349;28;20054;-84
2023/01/11 07:07:54;;;;;;;;;;;6.80;99.90;;;;;;4980704;29;20030;-83
2023/01/11 07:10:20;;;;;;;6.18;1.45;;;6.90;99.90;;;;;;4980621;28;19922;-81
2023/01/11 07:12:46;;;;;;;;;;;7.10;99.90;;;;;;4964175;28;20019;-83
2023/01/11 11:28:31;;;;;;;6.00;3.42;;;10.70;99.90;;;;;;5928148;23;20022;-79
2023/01/11 11:31:03;;;;;;;7.43;3.63;;;10.70;99.90;;;;;;4961149;29;20042;-78
2023/01/11 11:33:36;;;;;;;8.70;4.35;;;10.70;99.90;;;;;;4959959;29;20011;-81
2023/01/11 11:36:06;;;;;;;10.35;5.63;;;10.50;99.90;;;;;;4961693;29;20043;-81
2023/01/11 11:38:37;;;;;;;12.15;6.45;;;10.60;99.90;;;;;;4960900;29;20012;-80
2023/01/11 11:41:03;;;;;;;11.88;5.90;;;10.60;99.90;;;;;;4961587;29;20023;-79
2023/01/11 11:43:30;;;;;;;;;;;10.50;99.90;;;;;;4961687;29;20032;-81
2023/01/11 11:46:03;;;;;;;7.55;4.20;;;10.40;99.90;;;;;;4961366;29;19954;-80
2023/01/11 11:48:32;;;;;;;8.32;3.83;;;10.40;99.90;;;;;;4961439;29;20024;-83
2023/01/11 11:51:02;;;;;;;8.52;3.70;;;10.50;99.90;;;;;;4961570;28;20012;-81
2023/01/11 11:53:54;;;;;;;149.93;68.45;;;10.50;99.90;;;;;;4960952;29;20043;-80
2023/01/11 11:56:27;;;;;;;33.00;17.63;;;10.50;99.90;;;;;;4961367;29;20020;-82
2023/01/11 11:58:54;;;;;;;8.15;4.70;;;10.40;99.90;;;;;;4961731;29;20031;-80
2023/01/11 12:01:30;;;;;;;19.98;11.95;;;10.20;99.90;;;;;;4965401;29;20043;-79
2023/01/11 12:04:14;;;;;;;11.90;7.70;;;10.20;99.90;;;;;;4964807;29;20036;-81
2023/01/11 12:06:40;;;;;;;11.40;6.15;;;10.10;99.90;;;;;;4965176;29;20059;-82
2023/01/11 14:16:24;;;;;;;14.50;8.70;;;9.10;99.90;;;;;;5116989;23;20523;-81
2023/01/11 14:18:56;;;;;;;12.73;7.60;;;9.10;99.90;;;;;;4965560;28;20019;-79
2023/01/11 14:21:32;;;;;;;13.68;7.93;;;9.00;99.90;;;;;;4965136;28;20027;-80
2023/01/11 14:24:00;;;;;;;15.68;8.07;;;8.80;99.90;;;;;;4981869;28;20013;-80
2023/01/11 14:26:53;;;;;;;11.88;6.88;;;8.80;99.90;;;;;;4981961;28;20087;-79
2023/01/11 14:29:58;;;;;;;13.43;7.35;;;8.90;99.90;;;;;;4981792;28;20035;-80
2023/01/11 14:32:23;;;;;;;11.63;6.05;;;8.80;99.90;;;;;;4949901;28;20059;-79
2023/01/11 14:35:01;;;;;;;;;;;8.70;99.90;;;;;;4982044;28;20011;-82
2023/01/11 14:37:27;;;;;;;;;;;8.60;99.90;;;;;;4965252;28;19894;-81
2023/01/11 14:40:24;;;;;;;24.40;9.80;;;8.50;99.90;;;;;;4981231;28;19928;-80
2023/01/11 14:43:08;;;;;;;27.23;14.25;;;8.50;99.90;;;;;;4962652;29;20023;-80
2023/01/11 14:46:02;;;;;;;22.58;13.05;;;8.40;99.90;;;;;;4979227;29;20028;-82
2023/01/11 14:48:49;;;;;;;23.80;11.02;;;8.30;99.90;;;;;;4979160;29;20027;-82
2023/01/11 14:51:31;;;;;;;;;;;8.10;99.90;;;;;;4979529;29;20019;-81
2023/01/11 14:54:09;;;;;;;24.83;11.32;;;8.00;99.90;;;;;;4976788;29;19970;-81
2023/01/11 14:56:55;;;;;;;16.45;9.80;;;8.00;99.90;;;;;;4977428;29;20046;-81
2023/01/11 14:59:30;;;;;;;15.38;9.00;;;8.00;99.90;;;;;;4960160;29;20046;-81
2023/01/11 15:02:02;;;;;;;16.27;10.35;;;7.80;99.90;;;;;;4960727;28;20031;-81
2023/01/11 15:04:54;;;;;;;24.02;14.65;;;7.70;99.90;;;;;;4961044;29;20027;-82
2023/01/11 15:07:28;;;;;;;35.05;16.75;;;7.50;99.90;;;;;;4976861;28;20071;-80
2023/01/11 15:09:55;;;;;;;28.20;16.13;;;7.50;99.90;;;;;;4958474;29;20055;-82
2023/01/11 15:12:24;;;;;;;30.75;16.42;;;7.40;99.90;;;;;;4942153;29;20035;-82
2023/01/11 15:15:03;;;;;;;26.05;16.20;;;7.40;99.90;;;;;;4958232;29;20044;-82
2023/01/11 15:20:20;;;;;;;34.42;17.35;;;7.20;99.90;;;;;;4958591;29;20064;-81
2023/01/11 15:22:54;;;;;;;25.83;14.80;;;7.10;99.90;;;;;;4944600;29;20012;-81
2023/01/11 15:25:25;;;;;;;26.60;14.68;;;6.90;99.90;;;;;;4958090;29;20020;-80
2023/01/11 15:27:52;;;;;;;43.40;22.05;;;6.80;99.90;;;;;;4960892;28;20028;-82
2023/01/11 15:30:30;;;;;;;68.88;35.85;;;6.60;99.90;;;;;;4961022;28;20011;-83
2023/01/11 15:33:24;;;;;;;87.80;42.47;;;6.50;99.90;;;;;;4944175;29;20040;-82
2023/01/11 15:35:55;;;;;;;78.22;40.67;;;6.40;99.90;;;;;;4960799;28;20035;-81
2023/01/11 15:38:32;;;;;;;111.90;56.53;;;6.30;99.90;;;;;;4944394;28;20015;-82
2023/01/11 15:42:02;;;;;;;126.72;71.93;;;6.30;99.90;;;;;;4960215;28;20028;-80
2023/01/11 15:44:33;;;;;;;184.30;110.22;;;6.10;99.90;;;;;;4960470;28;20015;-81
2023/01/11 15:47:36;;;;;;;203.60;112.68;;;6.00;99.90;;;;;;4956340;28;20044;-82
2023/01/11 15:50:24;;;;;;;219.77;122.00;;;5.90;99.90;;;;;;4944346;28;20046;-82
2023/01/11 15:53:42;;;;;;;96.95;54.30;;;5.90;99.90;;;;;;4961079;28;20032;-83
2023/01/11 15:56:20;;;;;;;133.30;70.90;;;5.80;99.90;;;;;;4944165;29;20132;-81
2023/01/11 15:59:23;;;;;;;127.70;71.72;;;5.60;99.90;;;;;;4943798;28;20028;-81
2023/01/11 16:01:49;;;;;;;130.57;69.45;;;5.70;99.90;;;;;;4944126;28;20019;-82
2023/01/11 16:04:27;;;;;;;;;;;5.60;99.90;;;;;;4944145;29;20035;-82
2023/01/11 16:06:57;;;;;;;70.78;38.25;;;5.60;99.90;;;;;;4960970;28;19922;-81
2023/01/11 16:15:05;;;;;;;83.60;44.78;;;5.40;99.90;;;;;;5169998;23;19926;-82
2023/01/11 16:17:31;;;;;;;44.65;26.30;;;5.20;99.90;;;;;;4946733;29;20023;-81
2023/01/11 16:20:12;;;;;;;45.28;25.08;;;5.30;99.90;;;;;;4979483;28;20027;-81
2023/01/11 16:22:38;;;;;;;43.38;23.17;;;5.20;99.90;;;;;;4979583;28;20031;-81
2023/01/11 16:25:06;;;;;;;;;;;5.20;99.90;;;;;;4979791;28;20088;-82
2023/01/11 16:27:33;;;;;;;84.82;40.03;;;5.00;99.90;;;;;;4963855;28;19903;-81
2023/01/11 16:30:00;;;;;;;73.05;44.67;;;5.00;99.90;;;;;;4962944;28;20104;-82
2023/01/11 16:32:31;;;;;;;57.58;32.75;;;4.80;99.90;;;;;;4978842;28;20040;-83
2023/01/11 16:35:00;;;;;;;34.60;19.95;;;4.80;99.90;;;;;;4978900;28;20022;-81
2023/01/11 16:37:38;;;;;;;30.92;20.13;;;4.80;99.90;;;;;;4961961;29;20022;-81
2023/01/11 16:40:41;;;;;;;31.20;18.65;;;4.80;99.90;;;;;;4978755;29;20031;-83
2023/01/11 16:43:24;;;;;;;99.55;44.35;;;4.70;99.90;;;;;;4868874;29;20046;-80
2023/01/11 16:45:54;;;;;;;51.70;30.45;;;4.70;99.90;;;;;;4956563;28;20074;-81
2023/01/11 16:48:25;;;;;;;147.95;80.50;;;4.60;99.90;;;;;;4981802;29;20027;-84
2023/01/11 16:51:09;;;;;;;118.85;71.47;;;4.60;99.90;;;;;;4983291;28;20007;-82
2023/01/11 16:53:38;;;;;;;40.80;27.48;;;4.60;99.90;;;;;;4981997;28;20071;-84
2023/01/11 16:56:17;;;;;;;47.97;29.30;;;4.50;99.90;;;;;;4965668;29;20042;-84
2023/01/11 16:59:00;;;;;;;45.13;29.05;;;4.50;99.90;;;;;;4982060;28;20079;-83
2023/01/11 17:01:27;;;;;;;229.48;125.10;;;4.40;99.90;;;;;;4981496;29;20051;-84
2023/01/11 17:03:53;;;;;;;;;;;4.40;99.90;;;;;;4981898;29;20094;-84
2023/01/11 17:06:24;;;;;;;243.75;133.82;;;4.30;99.90;;;;;;4981583;28;19898;-82
2023/01/11 17:25:39;;;;;;;16.60;9.38;;;4.20;99.90;;;;;;5803474;23;20043;-82
2023/01/11 17:28:12;;;;;;;23.20;13.60;;;4.30;99.90;;;;;;4977660;29;20091;-82
2023/01/11 17:30:40;;;;;;;37.92;20.95;;;4.20;99.90;;;;;;4966082;28;20015;-82
2023/01/11 17:33:25;;;;;;;54.75;29.20;;;4.20;99.90;;;;;;4966418;28;20035;-80
2023/01/11 17:35:51;;;;;;;45.65;26.58;;;4.20;99.90;;;;;;4966405;28;20019;-80
2023/01/11 17:38:22;;;;;;;49.75;31.15;;;4.20;99.90;;;;;;4982821;28;20038;-81
2023/01/11 17:40:50;;;;;;;70.45;35.85;;;4.20;99.90;;;;;;4982568;28;20031;-81
2023/01/11 17:46:06;;;;;;;51.85;28.13;;;4.10;99.90;;;;;;4982651;28;20030;-81
2023/01/11 17:48:33;;;;;;;47.10;25.98;;;4.00;99.90;;;;;;4966238;28;20087;-81
2023/01/11 17:51:03;;;;;;;54.53;28.63;;;4.10;99.90;;;;;;4965806;28;20031;-81
2023/01/11 17:53:36;;;;;;;50.67;29.63;;;4.10;99.90;;;;;;4966046;28;20011;-81
2023/01/11 17:56:06;;;;;;;44.63;26.35;;;4.00;99.90;;;;;;4982253;28;20011;-81
2023/01/11 17:58:33;;;;;;;44.78;26.45;;;4.00;99.90;;;;;;4965407;28;20070;-80
2023/01/11 18:01:08;;;;;;;42.58;25.00;;;3.90;99.90;;;;;;4982311;28;20074;-80
2023/01/11 18:03:55;;;;;;;59.03;32.75;;;3.90;99.90;;;;;;4982369;28;20011;-80
2023/01/11 18:06:29;;;;;;;80.32;40.47;;;3.90;99.90;;;;;;4965807;28;20047;-82
2023/01/11 18:14:24;;;;;;;58.20;34.97;;;3.80;99.90;;;;;;5352468;23;20039;-83
2023/01/11 18:17:26;;;;;;;58.20;32.95;;;3.70;99.90;;;;;;4963153;28;20019;-83
2023/01/11 18:19:52;;;;;;;64.07;33.65;;;3.70;99.90;;;;;;4979694;29;20075;-84
2023/01/11 18:22:36;;;;;;;157.48;73.22;;;3.70;99.90;;;;;;4979208;28;20047;-82
2023/01/11 18:25:25;;;;;;;233.40;94.95;;;3.60;99.90;;;;;;4978995;29;20027;-81
2023/01/11 18:28:14;;;;;;;182.35;79.93;;;3.80;99.90;;;;;;4962937;29;20023;-83
2023/01/11 18:30:52;;;;;;;110.20;49.35;;;3.80;99.90;;;;;;4979657;29;20025;-83
2023/01/11 18:33:21;;;;;;;115.68;53.00;;;3.70;99.90;;;;;;4979312;29;20009;-82
2023/01/11 18:35:51;;;;;;;99.50;45.47;;;3.70;99.90;;;;;;4978068;29;20031;-83
2023/01/11 18:38:20;;;;;;;78.30;39.38;;;3.60;99.90;;;;;;4962108;29;20078;-83
2023/01/11 18:40:48;;;;;;;53.45;30.23;;;3.60;99.90;;;;;;4978757;29;20047;-84
2023/01/11 18:43:14;;;;;;;56.20;29.75;;;3.60;99.90;;;;;;4978549;28;20037;-82
2023/01/11 18:45:40;;;;;;;54.53;30.45;;;3.50;99.90;;;;;;4961826;29;20028;-84
2023/01/11 18:48:12;;;;;;;;;;;3.50;99.90;;;;;;4962081;28;20049;-82
2023/01/11 18:50:39;;;;;;;60.97;31.40;;;3.50;99.90;;;;;;4962068;29;19906;-83
2023/01/11 18:53:08;;;;;;;56.50;31.67;;;3.50;99.90;;;;;;4978931;28;20027;-83
2023/01/11 18:55:34;;;;;;;45.70;23.80;;;3.50;99.90;;;;;;4962272;29;20023;-83
2023/01/11 18:58:00;;;;;;;;;;;3.40;99.90;;;;;;4979503;29;20035;-82
2023/01/11 19:00:26;;;;;;;42.40;22.65;;;3.40;99.90;;;;;;4962430;29;19907;-83
2023/01/11 19:02:52;;;;;;;;;;;3.10;99.90;;;;;;4979331;29;20047;-82
2023/01/11 19:05:18;;;;;;;42.05;20.50;;;3.30;99.90;;;;;;4961819;29;19962;-83
2023/01/11 19:07:44;;;;;;;;;;;3.40;99.90;;;;;;4980647;28;20193;-80
2023/01/11 19:10:13;;;;;;;54.83;27.05;;;3.30;99.90;;;;;;4980591;28;19895;-82
2023/01/11 19:12:40;;;;;;;58.90;31.30;;;3.20;99.90;;;;;;4980627;28;20011;-82
2023/01/11 19:15:07;;;;;;;46.42;25.30;;;3.20;99.90;;;;;;4980695;28;20032;-80
2023/01/11 19:17:33;;;;;;;59.65;32.20;;;3.10;99.90;;;;;;4964044;28;20022;-83
2023/01/11 19:19:59;;;;;;;;;;;3.10;99.90;;;;;;4964512;28;20034;-83
2023/01/11 19:22:25;;;;;;;64.65;31.73;;;3.10;99.90;;;;;;4980875;28;19906;-82
2023/01/11 19:24:51;;;;;;;;;;;3.10;99.90;;;;;;4964502;28;20015;-82
2023/01/11 19:27:17;;;;;;;50.35;24.35;;;3.20;99.90;;;;;;4980741;28;19926;-82
2023/01/11 19:29:42;;;;;;;;;;;3.10;99.90;;;;;;4981145;28;20015;-82
2023/01/11 19:32:08;;;;;;;42.38;22.25;;;3.20;99.90;;;;;;4980618;28;19895;-82
2023/01/11 19:34:34;;;;;;;;;;;3.30;99.90;;;;;;4980940;28;20023;-83
2023/01/11 19:37:00;;;;;;;78.20;32.87;;;3.10;99.90;;;;;;4980183;28;19894;-82
2023/01/11 19:39:26;;;;;;;;;;;3.10;99.90;;;;;;4964400;28;20039;-82
2023/01/11 19:41:53;;;;;;;129.20;55.28;;;3.00;99.90;;;;;;4963881;28;19901;-83
2023/01/11 19:44:25;;;;;;;128.23;58.35;;;3.10;99.90;;;;;;4963905;28;20032;-82
2023/01/11 19:46:52;;;;;;;116.60;53.47;;;2.90;99.90;;;;;;4980357;28;20026;-81
2023/01/11 19:49:18;;;;;;;96.90;43.20;;;2.80;99.90;;;;;;4963528;28;20016;-82
2023/01/11 19:51:44;;;;;;;72.70;35.72;;;2.90;99.90;;;;;;4980327;28;20075;-81
2023/01/11 19:54:11;;;;;;;;;;;2.90;99.90;;;;;;4980722;28;20035;-83
2023/01/11 19:56:38;;;;;;;45.95;24.35;;;2.90;99.90;;;;;;4980377;28;19894;-82
2023/01/11 19:59:04;;;;;;;45.13;24.35;;;2.90;99.90;;;;;;4963992;28;20292;-82
2023/01/11 20:01:31;;;;;;;38.75;21.88;;;2.90;99.90;;;;;;4963842;28;20055;-81
2023/01/11 20:03:57;;;;;;;24.65;12.07;;;3.00;99.90;;;;;;4980403;28;20016;-83
2023/01/11 20:06:24;;;;;;;32.33;16.15;;;2.80;99.90;;;;;;4980359;28;20039;-82
2023/01/11 20:11:26;;;;;;;49.17;23.58;;;2.80;99.90;;;;;;5156385;23;20043;-82
2023/01/11 20:13:52;;;;;;;53.63;25.48;;;2.70;99.90;;;;;;4978526;29;20023;-81
2023/01/11 20:16:18;;;;;;;;;;;2.70;99.90;;;;;;4978820;29;20020;-84
2023/01/11 20:18:53;;;;;;;63.20;32.97;;;2.60;99.90;;;;;;4978454;29;19891;-82
2023/01/11 20:21:24;;;;;;;68.68;35.65;;;2.60;99.90;;;;;;4964385;29;20103;-82
2023/01/11 20:23:50;;;;;;;61.80;35.15;;;2.70;99.90;;;;;;4965275;28;20078;-80
2023/01/11 20:26:16;;;;;;;48.95;28.10;;;2.70;99.90;;;;;;4982188;29;20011;-83
2023/01/11 20:28:48;;;;;;;47.97;25.40;;;2.70;99.90;;;;;;4981372;28;20083;-82
2023/01/11 20:31:15;;;;;;;41.35;21.45;;;2.70;99.90;;;;;;4965178;29;20055;-83
2023/01/11 20:33:42;;;;;;;39.92;20.38;;;2.70;99.90;;;;;;4981734;29;20030;-82
2023/01/11 20:36:16;;;;;;;35.33;18.95;;;2.70;99.90;;;;;;4979171;29;20035;-81
2023/01/11 20:38:44;;;;;;;41.75;19.27;;;2.60;99.90;;;;;;4961810;29;20031;-79
2023/01/11 20:41:45;;;;;;;49.67;25.13;;;2.50;99.90;;;;;;4978822;29;20027;-79
2023/01/11 20:43:59;;;;;;;72.15;34.30;;;2.40;99.90;;;;;;4965360;29;20031;-80
2023/01/11 20:46:25;;;;;;;75.70;35.67;;;2.40;99.90;;;;;;4978835;29;20068;-79
2023/01/11 20:48:51;;;;;;;;;;;2.30;99.90;;;;;;4977910;29;20077;-82
2023/01/11 20:51:17;;;;;;;64.68;31.38;;;2.30;99.90;;;;;;4961893;29;20431;-83
2023/01/11 20:53:43;;;;;;;48.55;26.73;;;2.00;99.90;;;;;;4973871;29;20027;-81
2023/01/11 20:56:09;;;;;;;;;;;2.30;99.90;;;;;;4979051;29;20027;-82
2023/01/11 20:58:35;;;;;;;40.78;20.70;;;2.40;99.90;;;;;;4977964;29;19917;-80
2023/01/11 21:01:04;;;;;;;;;;;2.20;99.90;;;;;;4978241;29;20039;-81
2023/01/11 21:03:31;;;;;;;31.58;16.30;;;2.20;99.90;;;;;;4961477;29;19913;-82
2023/01/11 21:05:57;;;;;;;28.35;14.73;;;2.30;99.90;;;;;;4978876;28;20028;-81
2023/01/11 21:08:23;;;;;;;25.20;14.15;;;2.30;99.90;;;;;;4981521;28;20012;-81
2023/01/11 21:10:49;;;;;;;46.70;22.30;;;2.30;99.90;;;;;;4980999;29;20047;-82
2023/01/11 21:13:15;;;;;;;;;;;2.30;99.90;;;;;;4981105;28;20035;-83
2023/01/11 21:15:41;;;;;;;78.28;34.78;;;2.30;99.90;;;;;;4964487;29;20367;-83
2023/01/11 21:18:06;;;;;;;;;;;2.20;99.90;;;;;;4964824;29;20014;-83
2023/01/11 21:20:33;;;;;;;70.93;34.33;;;2.20;99.90;;;;;;4980788;29;19921;-83
2023/01/11 21:22:59;;;;;;;64.72;29.98;;;2.20;99.90;;;;;;4963975;28;20031;-80
2023/01/11 21:25:24;;;;;;;;;;;2.20;99.90;;;;;;4982789;28;20023;-81